sensor_id;sensor_type;location;lat;lon;timestamp;temperature;humidity
43995;DHT22;51687;52.160;5.298;2023-02-11T00:00:20;11.80;61.00
43995;DHT22;51687;52.160;5.298;2023-02-11T00:02:47;11.80;61.20
43995;DHT22;51687;52.160;5.298;2023-02-11T00:05:14;11.90;61.20
43995;DHT22;51687;52.160;5.298;2023-02-11T00:07:41;11.90;61.10
43995;DHT22;51687;52.160;5.298;2023-02-11T00:10:08;11.90;61.10
43995;DHT22;51687;52.160;5.298;2023-02-11T00:12:36;11.80;61.10
43995;DHT22;51687;52.160;5.298;2023-02-11T00:15:04;11.90;61.20
43995;DHT22;51687;52.160;5.298;2023-02-11T00:17:31;11.90;61.30
43995;DHT22;51687;52.160;5.298;2023-02-11T00:19:58;11.80;61.30
43995;DHT22;51687;52.160;5.298;2023-02-11T00:22:25;11.80;61.30
43995;DHT22;51687;52.160;5.298;2023-02-11T00:24:52;11.80;61.30
43995;DHT22;51687;52.160;5.298;2023-02-11T00:27:19;11.80;61.40
43995;DHT22;51687;52.160;5.298;2023-02-11T00:29:45;11.80;61.30
43995;DHT22;51687;52.160;5.298;2023-02-11T00:32:12;11.90;61.30
43995;DHT22;51687;52.160;5.298;2023-02-11T00:34:40;11.80;61.40
43995;DHT22;51687;52.160;5.298;2023-02-11T00:37:07;11.90;61.90
43995;DHT22;51687;52.160;5.298;2023-02-11T00:39:33;11.90;61.30
43995;DHT22;51687;52.160;5.298;2023-02-11T00:42:00;11.80;61.40
43995;DHT22;51687;52.160;5.298;2023-02-11T00:44:27;11.80;61.50
43995;DHT22;51687;52.160;5.298;2023-02-11T00:46:55;11.90;61.50
43995;DHT22;51687;52.160;5.298;2023-02-11T00:49:21;11.90;61.50
43995;DHT22;51687;52.160;5.298;2023-02-11T00:51:48;11.90;61.40
43995;DHT22;51687;52.160;5.298;2023-02-11T00:54:15;11.90;61.50
43995;DHT22;51687;52.160;5.298;2023-02-11T00:56:42;11.90;61.50
43995;DHT22;51687;52.160;5.298;2023-02-11T00:59:08;11.80;61.50
43995;DHT22;51687;52.160;5.298;2023-02-11T01:01:35;11.80;61.60
43995;DHT22;51687;52.160;5.298;2023-02-11T01:04:03;11.90;61.60
43995;DHT22;51687;52.160;5.298;2023-02-11T01:06:31;11.80;61.50
43995;DHT22;51687;52.160;5.298;2023-02-11T01:08:58;11.80;61.50
43995;DHT22;51687;52.160;5.298;2023-02-11T01:11:24;11.80;61.50
43995;DHT22;51687;52.160;5.298;2023-02-11T01:13:51;11.80;61.60
43995;DHT22;51687;52.160;5.298;2023-02-11T01:16:19;11.80;61.60
43995;DHT22;51687;52.160;5.298;2023-02-11T01:18:46;11.80;61.70
43995;DHT22;51687;52.160;5.298;2023-02-11T01:21:13;11.80;61.60
43995;DHT22;51687;52.160;5.298;2023-02-11T01:23:40;11.80;61.70
43995;DHT22;51687;52.160;5.298;2023-02-11T01:26:07;11.70;61.80
43995;DHT22;51687;52.160;5.298;2023-02-11T01:28:34;11.80;61.90
43995;DHT22;51687;52.160;5.298;2023-02-11T01:31:01;11.80;61.90
43995;DHT22;51687;52.160;5.298;2023-02-11T01:33:28;11.80;61.90
43995;DHT22;51687;52.160;5.298;2023-02-11T01:35:59;11.80;61.80
43995;DHT22;51687;52.160;5.298;2023-02-11T01:38:27;11.80;61.90
43995;DHT22;51687;52.160;5.298;2023-02-11T01:41:02;11.80;62.40
43995;DHT22;51687;52.160;5.298;2023-02-11T01:43:39;11.80;61.90
43995;DHT22;51687;52.160;5.298;2023-02-11T01:46:35;11.80;61.90
43995;DHT22;51687;52.160;5.298;2023-02-11T01:49:12;11.80;61.90
43995;DHT22;51687;52.160;5.298;2023-02-11T01:51:48;11.80;61.90
43995;DHT22;51687;52.160;5.298;2023-02-11T01:54:21;11.80;61.80
43995;DHT22;51687;52.160;5.298;2023-02-11T01:57:07;11.80;61.90
43995;DHT22;51687;52.160;5.298;2023-02-11T02:05:14;11.80;61.70
43995;DHT22;51687;52.160;5.298;2023-02-11T02:10:27;11.80;61.70
43995;DHT22;51687;52.160;5.298;2023-02-11T02:12:54;11.80;61.50
43995;DHT22;51687;52.160;5.298;2023-02-11T02:15:27;11.80;61.70
43995;DHT22;51687;52.160;5.298;2023-02-11T02:26:13;11.80;61.40
43995;DHT22;51687;52.160;5.298;2023-02-11T02:31:53;11.80;61.40
43995;DHT22;51687;52.160;5.298;2023-02-11T02:34:40;11.70;61.40
43995;DHT22;51687;52.160;5.298;2023-02-11T02:37:23;11.70;61.40
43995;DHT22;51687;52.160;5.298;2023-02-11T02:39:52;11.70;61.60
43995;DHT22;51687;52.160;5.298;2023-02-11T02:42:20;11.70;61.50
43995;DHT22;51687;52.160;5.298;2023-02-11T02:44:52;11.70;61.50
43995;DHT22;51687;52.160;5.298;2023-02-11T02:47:18;11.70;61.60
43995;DHT22;51687;52.160;5.298;2023-02-11T02:49:45;11.70;61.60
43995;DHT22;51687;52.160;5.298;2023-02-11T02:52:53;11.60;61.70
43995;DHT22;51687;52.160;5.298;2023-02-11T02:55:27;11.70;61.90
43995;DHT22;51687;52.160;5.298;2023-02-11T02:58:27;11.60;62.00
43995;DHT22;51687;52.160;5.298;2023-02-11T03:04:18;11.60;62.20
43995;DHT22;51687;52.160;5.298;2023-02-11T03:10:08;11.60;62.10
43995;DHT22;51687;52.160;5.298;2023-02-11T03:12:15;11.60;61.90
43995;DHT22;51687;52.160;5.298;2023-02-11T03:14:43;11.60;61.90
43995;DHT22;51687;52.160;5.298;2023-02-11T03:17:10;11.60;62.20
43995;DHT22;51687;52.160;5.298;2023-02-11T03:19:41;11.60;62.20
43995;DHT22;51687;52.160;5.298;2023-02-11T03:22:39;11.60;62.30
43995;DHT22;51687;52.160;5.298;2023-02-11T03:25:07;11.60;62.30
43995;DHT22;51687;52.160;5.298;2023-02-11T03:27:55;11.60;62.30
43995;DHT22;51687;52.160;5.298;2023-02-11T03:33:07;11.50;62.30
43995;DHT22;51687;52.160;5.298;2023-02-11T03:35:44;11.50;62.60
43995;DHT22;51687;52.160;5.298;2023-02-11T03:38:18;11.50;62.70
43995;DHT22;51687;52.160;5.298;2023-02-11T03:40:48;11.50;62.70
43995;DHT22;51687;52.160;5.298;2023-02-11T03:43:16;11.50;62.80
43995;DHT22;51687;52.160;5.298;2023-02-11T03:45:45;11.40;62.70
43995;DHT22;51687;52.160;5.298;2023-02-11T03:48:22;11.40;62.80
43995;DHT22;51687;52.160;5.298;2023-02-11T03:50:53;11.40;62.90
43995;DHT22;51687;52.160;5.298;2023-02-11T03:53:22;11.40;63.00
43995;DHT22;51687;52.160;5.298;2023-02-11T03:55:50;11.40;63.10
43995;DHT22;51687;52.160;5.298;2023-02-11T03:58:18;11.40;63.10
43995;DHT22;51687;52.160;5.298;2023-02-11T04:00:44;11.40;63.20
43995;DHT22;51687;52.160;5.298;2023-02-11T04:03:12;11.40;63.30
43995;DHT22;51687;52.160;5.298;2023-02-11T04:05:39;11.40;63.30
43995;DHT22;51687;52.160;5.298;2023-02-11T04:08:06;11.40;63.40
43995;DHT22;51687;52.160;5.298;2023-02-11T04:10:33;11.40;63.60
43995;DHT22;51687;52.160;5.298;2023-02-11T04:13:00;11.40;63.60
43995;DHT22;51687;52.160;5.298;2023-02-11T04:15:27;11.40;63.70
43995;DHT22;51687;52.160;5.298;2023-02-11T04:17:53;11.40;63.70
43995;DHT22;51687;52.160;5.298;2023-02-11T04:20:20;11.40;63.70
43995;DHT22;51687;52.160;5.298;2023-02-11T04:22:47;11.50;63.70
43995;DHT22;51687;52.160;5.298;2023-02-11T04:25:14;11.50;63.70
43995;DHT22;51687;52.160;5.298;2023-02-11T04:27:41;11.50;63.70
43995;DHT22;51687;52.160;5.298;2023-02-11T04:30:08;11.50;63.80
43995;DHT22;51687;52.160;5.298;2023-02-11T04:32:35;11.40;64.00
43995;DHT22;51687;52.160;5.298;2023-02-11T04:35:02;11.40;64.00
43995;DHT22;51687;52.160;5.298;2023-02-11T04:37:30;11.40;64.20
43995;DHT22;51687;52.160;5.298;2023-02-11T04:39:56;11.40;64.50
43995;DHT22;51687;52.160;5.298;2023-02-11T04:42:23;11.30;64.70
43995;DHT22;51687;52.160;5.298;2023-02-11T04:44:50;11.30;64.80
43995;DHT22;51687;52.160;5.298;2023-02-11T04:47:19;11.40;64.80
43995;DHT22;51687;52.160;5.298;2023-02-11T04:49:46;11.40;64.80
43995;DHT22;51687;52.160;5.298;2023-02-11T04:52:12;11.40;64.80
43995;DHT22;51687;52.160;5.298;2023-02-11T04:54:39;11.50;64.80
43995;DHT22;51687;52.160;5.298;2023-02-11T04:57:06;11.50;64.80
43995;DHT22;51687;52.160;5.298;2023-02-11T04:59:33;11.50;64.80
43995;DHT22;51687;52.160;5.298;2023-02-11T05:01:59;11.50;64.80
43995;DHT22;51687;52.160;5.298;2023-02-11T05:04:26;11.50;64.80
43995;DHT22;51687;52.160;5.298;2023-02-11T05:06:53;11.50;64.80
43995;DHT22;51687;52.160;5.298;2023-02-11T05:09:23;11.60;64.90
43995;DHT22;51687;52.160;5.298;2023-02-11T05:11:49;11.60;64.80
43995;DHT22;51687;52.160;5.298;2023-02-11T05:14:16;11.60;64.90
43995;DHT22;51687;52.160;5.298;2023-02-11T05:16:43;11.60;64.80
43995;DHT22;51687;52.160;5.298;2023-02-11T05:19:10;11.60;64.80
43995;DHT22;51687;52.160;5.298;2023-02-11T05:21:36;11.50;64.90
43995;DHT22;51687;52.160;5.298;2023-02-11T05:24:03;11.60;65.00
43995;DHT22;51687;52.160;5.298;2023-02-11T05:26:31;11.60;65.10
43995;DHT22;51687;52.160;5.298;2023-02-11T05:28:58;11.50;65.10
43995;DHT22;51687;52.160;5.298;2023-02-11T05:31:25;11.60;65.30
43995;DHT22;51687;52.160;5.298;2023-02-11T05:33:52;11.50;65.20
43995;DHT22;51687;52.160;5.298;2023-02-11T05:36:19;11.60;65.40
43995;DHT22;51687;52.160;5.298;2023-02-11T05:38:46;11.50;65.50
43995;DHT22;51687;52.160;5.298;2023-02-11T05:41:13;11.50;65.60
43995;DHT22;51687;52.160;5.298;2023-02-11T05:43:40;11.50;65.80
43995;DHT22;51687;52.160;5.298;2023-02-11T05:46:06;11.60;65.90
43995;DHT22;51687;52.160;5.298;2023-02-11T05:48:33;11.60;65.90
43995;DHT22;51687;52.160;5.298;2023-02-11T05:51:00;11.60;65.70
43995;DHT22;51687;52.160;5.298;2023-02-11T05:53:27;11.70;65.80
43995;DHT22;51687;52.160;5.298;2023-02-11T05:55:54;11.70;65.60
43995;DHT22;51687;52.160;5.298;2023-02-11T05:58:20;11.60;65.60
43995;DHT22;51687;52.160;5.298;2023-02-11T06:00:47;11.70;65.70
43995;DHT22;51687;52.160;5.298;2023-02-11T06:03:14;11.60;65.70
43995;DHT22;51687;52.160;5.298;2023-02-11T06:05:42;11.70;65.80
43995;DHT22;51687;52.160;5.298;2023-02-11T06:08:10;11.70;65.90
43995;DHT22;51687;52.160;5.298;2023-02-11T06:10:37;11.70;65.80
43995;DHT22;51687;52.160;5.298;2023-02-11T06:13:04;11.70;65.70
43995;DHT22;51687;52.160;5.298;2023-02-11T06:15:31;11.70;65.70
43995;DHT22;51687;52.160;5.298;2023-02-11T06:17:58;11.70;65.80
43995;DHT22;51687;52.160;5.298;2023-02-11T06:20:25;11.70;65.80
43995;DHT22;51687;52.160;5.298;2023-02-11T06:22:51;11.80;65.80
43995;DHT22;51687;52.160;5.298;2023-02-11T06:25:18;11.70;65.70
43995;DHT22;51687;52.160;5.298;2023-02-11T06:27:45;11.70;65.80
43995;DHT22;51687;52.160;5.298;2023-02-11T06:30:12;11.70;66.00
43995;DHT22;51687;52.160;5.298;2023-02-11T06:32:39;11.70;66.10
43995;DHT22;51687;52.160;5.298;2023-02-11T06:35:12;11.70;66.10
43995;DHT22;51687;52.160;5.298;2023-02-11T06:37:40;11.70;66.00
43995;DHT22;51687;52.160;5.298;2023-02-11T06:40:08;11.70;66.10
43995;DHT22;51687;52.160;5.298;2023-02-11T06:42:35;11.70;66.10
43995;DHT22;51687;52.160;5.298;2023-02-11T06:45:07;11.70;66.10
43995;DHT22;51687;52.160;5.298;2023-02-11T06:47:36;11.70;66.20
43995;DHT22;51687;52.160;5.298;2023-02-11T06:50:04;11.70;66.30
43995;DHT22;51687;52.160;5.298;2023-02-11T06:52:31;11.70;66.20
43995;DHT22;51687;52.160;5.298;2023-02-11T06:54:58;11.70;66.40
43995;DHT22;51687;52.160;5.298;2023-02-11T06:57:25;11.70;66.40
43995;DHT22;51687;52.160;5.298;2023-02-11T06:59:52;11.70;66.60
43995;DHT22;51687;52.160;5.298;2023-02-11T07:02:19;11.70;66.70
43995;DHT22;51687;52.160;5.298;2023-02-11T07:04:46;11.70;66.70
43995;DHT22;51687;52.160;5.298;2023-02-11T07:07:13;11.70;66.80
43995;DHT22;51687;52.160;5.298;2023-02-11T07:09:40;11.80;66.60
43995;DHT22;51687;52.160;5.298;2023-02-11T07:12:08;11.80;66.60
43995;DHT22;51687;52.160;5.298;2023-02-11T07:14:35;11.80;66.50
43995;DHT22;51687;52.160;5.298;2023-02-11T07:17:02;11.80;66.50
43995;DHT22;51687;52.160;5.298;2023-02-11T07:19:30;11.90;66.60
43995;DHT22;51687;52.160;5.298;2023-02-11T07:22:00;11.90;66.50
43995;DHT22;51687;52.160;5.298;2023-02-11T07:24:27;12.00;66.30
43995;DHT22;51687;52.160;5.298;2023-02-11T07:26:55;12.00;66.30
43995;DHT22;51687;52.160;5.298;2023-02-11T07:29:22;12.00;66.20
43995;DHT22;51687;52.160;5.298;2023-02-11T07:31:49;12.10;66.20
43995;DHT22;51687;52.160;5.298;2023-02-11T07:34:16;12.10;66.00
43995;DHT22;51687;52.160;5.298;2023-02-11T07:36:42;12.10;65.90
43995;DHT22;51687;52.160;5.298;2023-02-11T07:39:10;12.10;65.80
43995;DHT22;51687;52.160;5.298;2023-02-11T07:41:37;12.20;65.80
43995;DHT22;51687;52.160;5.298;2023-02-11T07:44:04;12.10;65.80
43995;DHT22;51687;52.160;5.298;2023-02-11T07:46:31;12.10;65.90
43995;DHT22;51687;52.160;5.298;2023-02-11T07:48:58;12.20;65.90
43995;DHT22;51687;52.160;5.298;2023-02-11T07:51:29;12.20;65.80
43995;DHT22;51687;52.160;5.298;2023-02-11T07:53:58;12.20;65.70
43995;DHT22;51687;52.160;5.298;2023-02-11T07:56:24;12.30;65.70
43995;DHT22;51687;52.160;5.298;2023-02-11T07:58:52;12.30;65.60
43995;DHT22;51687;52.160;5.298;2023-02-11T08:01:22;12.30;65.60
43995;DHT22;51687;52.160;5.298;2023-02-11T08:03:51;12.40;65.50
43995;DHT22;51687;52.160;5.298;2023-02-11T08:06:20;12.40;65.40
43995;DHT22;51687;52.160;5.298;2023-02-11T08:08:47;12.40;65.30
43995;DHT22;51687;52.160;5.298;2023-02-11T08:11:20;12.40;65.30
43995;DHT22;51687;52.160;5.298;2023-02-11T08:13:48;12.40;65.30
43995;DHT22;51687;52.160;5.298;2023-02-11T08:16:23;12.40;65.30
43995;DHT22;51687;52.160;5.298;2023-02-11T08:18:51;12.30;65.20
43995;DHT22;51687;52.160;5.298;2023-02-11T08:21:19;12.40;65.20
43995;DHT22;51687;52.160;5.298;2023-02-11T08:23:46;12.40;65.10
43995;DHT22;51687;52.160;5.298;2023-02-11T08:26:15;12.40;65.20
43995;DHT22;51687;52.160;5.298;2023-02-11T08:28:44;12.30;65.20
43995;DHT22;51687;52.160;5.298;2023-02-11T08:31:18;12.30;65.20
43995;DHT22;51687;52.160;5.298;2023-02-11T08:33:45;12.30;65.40
43995;DHT22;51687;52.160;5.298;2023-02-11T08:36:17;12.30;65.50
43995;DHT22;51687;52.160;5.298;2023-02-11T08:38:45;12.30;65.60
43995;DHT22;51687;52.160;5.298;2023-02-11T08:41:12;12.30;65.70
43995;DHT22;51687;52.160;5.298;2023-02-11T08:43:44;12.20;65.70
43995;DHT22;51687;52.160;5.298;2023-02-11T08:46:16;12.30;66.00
43995;DHT22;51687;52.160;5.298;2023-02-11T08:48:45;12.20;66.00
43995;DHT22;51687;52.160;5.298;2023-02-11T08:51:15;12.20;66.00
43995;DHT22;51687;52.160;5.298;2023-02-11T08:53:41;12.30;66.20
43995;DHT22;51687;52.160;5.298;2023-02-11T08:56:09;12.30;66.30
43995;DHT22;51687;52.160;5.298;2023-02-11T08:58:39;12.20;66.40
43995;DHT22;51687;52.160;5.298;2023-02-11T09:01:14;12.20;66.40
43995;DHT22;51687;52.160;5.298;2023-02-11T09:03:41;12.20;66.70
43995;DHT22;51687;52.160;5.298;2023-02-11T09:06:10;12.20;66.70
43995;DHT22;51687;52.160;5.298;2023-02-11T09:08:42;12.20;66.80
43995;DHT22;51687;52.160;5.298;2023-02-11T09:11:12;12.20;66.80
43995;DHT22;51687;52.160;5.298;2023-02-11T09:13:40;12.20;66.80
43995;DHT22;51687;52.160;5.298;2023-02-11T09:16:07;12.30;66.90
43995;DHT22;51687;52.160;5.298;2023-02-11T09:18:34;12.30;66.80
43995;DHT22;51687;52.160;5.298;2023-02-11T09:21:02;12.40;67.00
43995;DHT22;51687;52.160;5.298;2023-02-11T09:23:29;12.40;66.60
43995;DHT22;51687;52.160;5.298;2023-02-11T09:25:56;12.50;66.60
43995;DHT22;51687;52.160;5.298;2023-02-11T09:28:23;12.40;66.50
43995;DHT22;51687;52.160;5.298;2023-02-11T09:30:50;12.40;66.50
43995;DHT22;51687;52.160;5.298;2023-02-11T09:33:17;12.40;66.60
43995;DHT22;51687;52.160;5.298;2023-02-11T09:35:44;12.40;66.60
43995;DHT22;51687;52.160;5.298;2023-02-11T09:38:10;12.40;66.70
43995;DHT22;51687;52.160;5.298;2023-02-11T09:40:42;12.40;66.80
43995;DHT22;51687;52.160;5.298;2023-02-11T09:43:21;12.50;66.80
43995;DHT22;51687;52.160;5.298;2023-02-11T09:45:48;12.50;66.70
43995;DHT22;51687;52.160;5.298;2023-02-11T09:48:20;12.50;66.60
43995;DHT22;51687;52.160;5.298;2023-02-11T09:50:57;12.50;66.70
43995;DHT22;51687;52.160;5.298;2023-02-11T09:53:27;12.50;66.70
43995;DHT22;51687;52.160;5.298;2023-02-11T09:56:00;12.50;66.70
43995;DHT22;51687;52.160;5.298;2023-02-11T09:58:29;12.50;66.70
43995;DHT22;51687;52.160;5.298;2023-02-11T10:01:26;12.60;66.50
43995;DHT22;51687;52.160;5.298;2023-02-11T10:06:54;12.70;66.40
43995;DHT22;51687;52.160;5.298;2023-02-11T10:22:56;12.70;66.30
43995;DHT22;51687;52.160;5.298;2023-02-11T10:25:45;12.70;66.60
43995;DHT22;51687;52.160;5.298;2023-02-11T10:28:26;12.70;66.50
43995;DHT22;51687;52.160;5.298;2023-02-11T10:31:08;12.70;66.50
43995;DHT22;51687;52.160;5.298;2023-02-11T10:36:14;12.70;66.50
43995;DHT22;51687;52.160;5.298;2023-02-11T10:38:42;12.80;66.50
43995;DHT22;51687;52.160;5.298;2023-02-11T10:43:54;12.70;66.50
43995;DHT22;51687;52.160;5.298;2023-02-11T10:46:25;12.70;66.80
43995;DHT22;51687;52.160;5.298;2023-02-11T10:48:55;12.70;66.90
43995;DHT22;51687;52.160;5.298;2023-02-11T10:51:22;12.70;66.90
43995;DHT22;51687;52.160;5.298;2023-02-11T10:56:43;12.80;66.60
43995;DHT22;51687;52.160;5.298;2023-02-11T10:59:29;12.90;66.70
43995;DHT22;51687;52.160;5.298;2023-02-11T11:02:03;12.90;66.70
43995;DHT22;51687;52.160;5.298;2023-02-11T11:04:38;13.00;66.60
43995;DHT22;51687;52.160;5.298;2023-02-11T11:07:32;13.10;66.50
43995;DHT22;51687;52.160;5.298;2023-02-11T11:10:05;13.10;66.50
43995;DHT22;51687;52.160;5.298;2023-02-11T11:15:19;13.20;66.10
43995;DHT22;51687;52.160;5.298;2023-02-11T11:23:27;13.20;65.80
43995;DHT22;51687;52.160;5.298;2023-02-11T11:26:07;13.40;65.90
43995;DHT22;51687;52.160;5.298;2023-02-11T11:31:16;13.50;65.30
43995;DHT22;51687;52.160;5.298;2023-02-11T11:33:45;13.50;64.90
43995;DHT22;51687;52.160;5.298;2023-02-11T11:36:16;13.50;64.80
43995;DHT22;51687;52.160;5.298;2023-02-11T11:38:53;13.50;64.60
43995;DHT22;51687;52.160;5.298;2023-02-11T11:41:32;13.50;64.60
43995;DHT22;51687;52.160;5.298;2023-02-11T11:46:29;13.60;64.30
43995;DHT22;51687;52.160;5.298;2023-02-11T11:51:46;13.60;63.40
43995;DHT22;51687;52.160;5.298;2023-02-11T11:54:17;13.60;63.00
43995;DHT22;51687;52.160;5.298;2023-02-11T11:57:04;13.60;63.00
43995;DHT22;51687;52.160;5.298;2023-02-11T11:59:32;13.60;63.00
43995;DHT22;51687;52.160;5.298;2023-02-11T12:36:59;14.00;60.30
43995;DHT22;51687;52.160;5.298;2023-02-11T12:39:37;14.00;60.50
43995;DHT22;51687;52.160;5.298;2023-02-11T12:45:37;14.10;59.90
43995;DHT22;51687;52.160;5.298;2023-02-11T12:48:24;14.10;60.60
43995;DHT22;51687;52.160;5.298;2023-02-11T12:54:07;14.20;61.20
43995;DHT22;51687;52.160;5.298;2023-02-11T13:01:55;14.40;59.90
43995;DHT22;51687;52.160;5.298;2023-02-11T13:04:37;14.40;60.50
43995;DHT22;51687;52.160;5.298;2023-02-11T13:07:35;14.50;59.70
43995;DHT22;51687;52.160;5.298;2023-02-11T13:12:45;14.60;59.20
43995;DHT22;51687;52.160;5.298;2023-02-11T13:15:32;14.70;59.00
43995;DHT22;51687;52.160;5.298;2023-02-11T13:18:28;14.70;58.80
43995;DHT22;51687;52.160;5.298;2023-02-11T13:37:33;15.20;57.80
43995;DHT22;51687;52.160;5.298;2023-02-11T13:43:05;15.20;57.80
43995;DHT22;51687;52.160;5.298;2023-02-11T13:45:44;15.30;57.40
43995;DHT22;51687;52.160;5.298;2023-02-11T13:50:50;15.30;57.20
43995;DHT22;51687;52.160;5.298;2023-02-11T13:53:19;15.40;57.00
43995;DHT22;51687;52.160;5.298;2023-02-11T13:55:50;15.40;56.90
43995;DHT22;51687;52.160;5.298;2023-02-11T13:58:36;15.40;56.90
43995;DHT22;51687;52.160;5.298;2023-02-11T14:01:06;15.40;56.80
43995;DHT22;51687;52.160;5.298;2023-02-11T14:03:35;15.40;56.30
43995;DHT22;51687;52.160;5.298;2023-02-11T14:06:28;15.40;56.60
43995;DHT22;51687;52.160;5.298;2023-02-11T14:09:38;15.40;56.70
43995;DHT22;51687;52.160;5.298;2023-02-11T14:12:24;15.50;56.90
43995;DHT22;51687;52.160;5.298;2023-02-11T14:15:01;15.50;56.80
43995;DHT22;51687;52.160;5.298;2023-02-11T14:17:42;15.50;56.40
43995;DHT22;51687;52.160;5.298;2023-02-11T14:20:32;15.40;56.50
43995;DHT22;51687;52.160;5.298;2023-02-11T14:23:00;15.40;56.40
43995;DHT22;51687;52.160;5.298;2023-02-11T14:25:26;15.40;56.30
43995;DHT22;51687;52.160;5.298;2023-02-11T14:31:19;15.40;56.60
43995;DHT22;51687;52.160;5.298;2023-02-11T14:36:46;15.50;56.10
43995;DHT22;51687;52.160;5.298;2023-02-11T14:42:03;15.50;56.20
43995;DHT22;51687;52.160;5.298;2023-02-11T14:44:31;15.50;56.10
43995;DHT22;51687;52.160;5.298;2023-02-11T14:46:59;15.50;56.50
43995;DHT22;51687;52.160;5.298;2023-02-11T14:49:35;15.50;56.30
43995;DHT22;51687;52.160;5.298;2023-02-11T14:52:33;15.50;56.00
43995;DHT22;51687;52.160;5.298;2023-02-11T14:55:27;15.60;55.90
43995;DHT22;51687;52.160;5.298;2023-02-11T15:00:50;15.60;55.50
43995;DHT22;51687;52.160;5.298;2023-02-11T15:03:35;15.60;55.40
43995;DHT22;51687;52.160;5.298;2023-02-11T15:06:16;15.50;55.50
43995;DHT22;51687;52.160;5.298;2023-02-11T15:08:51;15.50;55.60
43995;DHT22;51687;52.160;5.298;2023-02-11T15:11:21;15.40;55.50
43995;DHT22;51687;52.160;5.298;2023-02-11T15:13:49;15.40;55.70
43995;DHT22;51687;52.160;5.298;2023-02-11T15:16:24;15.40;56.00
43995;DHT22;51687;52.160;5.298;2023-02-11T15:18:55;15.50;55.80
43995;DHT22;51687;52.160;5.298;2023-02-11T15:21:26;15.50;55.80
43995;DHT22;51687;52.160;5.298;2023-02-11T15:24:00;15.50;55.60
43995;DHT22;51687;52.160;5.298;2023-02-11T15:26:29;15.50;55.50
43995;DHT22;51687;52.160;5.298;2023-02-11T15:28:56;15.50;55.80
43995;DHT22;51687;52.160;5.298;2023-02-11T15:31:25;15.60;56.40
43995;DHT22;51687;52.160;5.298;2023-02-11T15:33:53;15.60;55.60
43995;DHT22;51687;52.160;5.298;2023-02-11T15:36:23;15.60;55.40
43995;DHT22;51687;52.160;5.298;2023-02-11T15:42:30;15.60;54.90
43995;DHT22;51687;52.160;5.298;2023-02-11T15:47:51;15.50;55.10
43995;DHT22;51687;52.160;5.298;2023-02-11T15:50:24;15.60;55.70
43995;DHT22;51687;52.160;5.298;2023-02-11T15:52:52;15.60;55.40
43995;DHT22;51687;52.160;5.298;2023-02-11T15:55:20;15.60;55.20
43995;DHT22;51687;52.160;5.298;2023-02-11T15:57:52;15.50;55.40
43995;DHT22;51687;52.160;5.298;2023-02-11T16:00:21;15.50;54.90
43995;DHT22;51687;52.160;5.298;2023-02-11T16:02:50;15.40;55.40
43995;DHT22;51687;52.160;5.298;2023-02-11T16:05:36;15.40;55.60
43995;DHT22;51687;52.160;5.298;2023-02-11T16:08:24;15.40;55.50
43995;DHT22;51687;52.160;5.298;2023-02-11T16:10:59;15.40;55.20
43995;DHT22;51687;52.160;5.298;2023-02-11T16:13:29;15.40;55.20
43995;DHT22;51687;52.160;5.298;2023-02-11T16:16:04;15.30;55.40
43995;DHT22;51687;52.160;5.298;2023-02-11T16:18:49;15.30;55.50
43995;DHT22;51687;52.160;5.298;2023-02-11T16:21:35;15.20;55.60
43995;DHT22;51687;52.160;5.298;2023-02-11T16:24:06;15.30;55.70
43995;DHT22;51687;52.160;5.298;2023-02-11T16:26:38;15.30;55.50
43995;DHT22;51687;52.160;5.298;2023-02-11T16:29:15;15.30;55.70
43995;DHT22;51687;52.160;5.298;2023-02-11T16:31:44;15.20;55.30
43995;DHT22;51687;52.160;5.298;2023-02-11T16:34:18;15.20;55.50
43995;DHT22;51687;52.160;5.298;2023-02-11T16:36:45;15.20;55.30
43995;DHT22;51687;52.160;5.298;2023-02-11T16:39:13;15.20;55.10
43995;DHT22;51687;52.160;5.298;2023-02-11T16:41:40;15.20;55.30
43995;DHT22;51687;52.160;5.298;2023-02-11T16:44:06;15.20;55.30
43995;DHT22;51687;52.160;5.298;2023-02-11T16:46:33;15.20;55.20
43995;DHT22;51687;52.160;5.298;2023-02-11T16:49:20;15.10;55.20
43995;DHT22;51687;52.160;5.298;2023-02-11T16:51:52;15.10;55.20
43995;DHT22;51687;52.160;5.298;2023-02-11T16:54:22;15.10;55.00
43995;DHT22;51687;52.160;5.298;2023-02-11T16:56:49;15.10;55.60
43995;DHT22;51687;52.160;5.298;2023-02-11T16:59:16;15.10;55.20
43995;DHT22;51687;52.160;5.298;2023-02-11T17:01:44;15.10;55.20
43995;DHT22;51687;52.160;5.298;2023-02-11T17:04:23;15.10;55.40
43995;DHT22;51687;52.160;5.298;2023-02-11T17:06:50;15.10;55.20
43995;DHT22;51687;52.160;5.298;2023-02-11T17:09:23;15.10;55.10
43995;DHT22;51687;52.160;5.298;2023-02-11T17:11:52;15.10;55.40
43995;DHT22;51687;52.160;5.298;2023-02-11T17:14:19;15.10;55.50
43995;DHT22;51687;52.160;5.298;2023-02-11T17:16:46;15.10;55.40
43995;DHT22;51687;52.160;5.298;2023-02-11T17:19:16;15.00;55.30
43995;DHT22;51687;52.160;5.298;2023-02-11T17:21:44;15.00;55.40
43995;DHT22;51687;52.160;5.298;2023-02-11T17:24:11;15.00;55.50
43995;DHT22;51687;52.160;5.298;2023-02-11T17:26:40;15.00;55.60
43995;DHT22;51687;52.160;5.298;2023-02-11T17:29:09;15.00;55.60
43995;DHT22;51687;52.160;5.298;2023-02-11T17:31:38;15.10;55.80
43995;DHT22;51687;52.160;5.298;2023-02-11T17:34:05;15.00;55.80
43995;DHT22;51687;52.160;5.298;2023-02-11T17:36:32;15.00;56.00
43995;DHT22;51687;52.160;5.298;2023-02-11T17:38:59;15.00;56.00
43995;DHT22;51687;52.160;5.298;2023-02-11T17:41:26;15.00;55.80
43995;DHT22;51687;52.160;5.298;2023-02-11T17:43:57;15.00;56.00
43995;DHT22;51687;52.160;5.298;2023-02-11T17:46:24;15.00;55.90
43995;DHT22;51687;52.160;5.298;2023-02-11T17:48:51;15.00;55.90
43995;DHT22;51687;52.160;5.298;2023-02-11T17:51:22;15.00;55.90
43995;DHT22;51687;52.160;5.298;2023-02-11T17:53:50;14.90;56.00
43995;DHT22;51687;52.160;5.298;2023-02-11T17:56:17;14.70;56.30
43995;DHT22;51687;52.160;5.298;2023-02-11T17:58:44;14.60;56.80
43995;DHT22;51687;52.160;5.298;2023-02-11T18:01:11;14.50;57.20
43995;DHT22;51687;52.160;5.298;2023-02-11T18:03:37;14.50;57.50
43995;DHT22;51687;52.160;5.298;2023-02-11T18:06:05;14.40;57.40
43995;DHT22;51687;52.160;5.298;2023-02-11T18:08:34;14.50;57.40
43995;DHT22;51687;52.160;5.298;2023-02-11T18:11:02;14.50;57.30
43995;DHT22;51687;52.160;5.298;2023-02-11T18:13:29;14.60;57.10
43995;DHT22;51687;52.160;5.298;2023-02-11T18:16:01;14.60;56.90
43995;DHT22;51687;52.160;5.298;2023-02-11T18:18:29;14.70;56.80
43995;DHT22;51687;52.160;5.298;2023-02-11T18:20:57;14.70;56.80
43995;DHT22;51687;52.160;5.298;2023-02-11T18:23:25;14.70;56.70
43995;DHT22;51687;52.160;5.298;2023-02-11T18:25:52;14.70;56.70
43995;DHT22;51687;52.160;5.298;2023-02-11T18:28:19;14.70;56.70
43995;DHT22;51687;52.160;5.298;2023-02-11T18:30:46;14.70;56.70